Time;durP1;ratioP1;P1;durP2;ratioP2;P2;SDS_P1;SDS_P2;PMS_P1;PMS_P2;Temp;Humidity;BMP_temperature;BMP_pressure;BME280_temperature;BME280_humidity;BME280_pressure;Samples;Min_cycle;Max_cycle;Signal;HPM_P1;HPM_P2
2023/03/06 00:01:28;;;;;;;26.12;13.03;;;;;;;-2.43;82.88;99292.88;1803402;79;21185;-80
2023/03/06 00:04:34;;;;;;;18.85;10.63;;;;;;;-2.44;82.95;99297.88;1803729;79;21149;-89
2023/03/06 00:07:40;;;;;;;70.30;33.40;;;;;;;-2.49;83.02;99296.05;1803392;79;21291;-79
2023/03/06 00:10:46;;;;;;;23.52;13.78;;;;;;;-2.50;83.15;99290.30;1801872;79;21157;-79
2023/03/06 00:13:52;;;;;;;20.37;12.33;;;;;;;-2.49;83.16;99284.00;1802427;79;21742;-79
2023/03/06 00:17:01;;;;;;;20.90;11.38;;;;;;;-2.45;83.11;99289.45;1803628;79;21477;-78
2023/03/06 00:20:06;;;;;;;20.80;10.98;;;;;;;-2.42;83.11;99289.72;1786192;79;21200;-81
2023/03/06 00:23:14;;;;;;;21.80;11.88;;;;;;;-2.42;83.05;99283.87;1802839;79;21224;-78
2023/03/06 00:26:20;;;;;;;24.52;14.00;;;;;;;-2.43;82.75;99279.49;1803711;79;21209;-89
2023/03/06 00:29:26;;;;;;;20.92;11.57;;;;;;;-2.46;82.62;99282.89;1801119;79;21726;-87
2023/03/06 00:32:31;;;;;;;19.98;11.45;;;;;;;-2.51;82.78;99279.72;1814356;79;21156;-89
2023/03/06 00:35:31;;;;;;;17.20;10.90;;;;;;;-2.53;83.07;99282.52;1814177;79;21169;-79
2023/03/06 00:38:26;;;;;;;41.90;22.13;;;;;;;-2.55;83.10;99279.58;1813680;79;21777;-89
2023/03/06 00:41:11;;;;;;;20.90;13.35;;;;;;;-2.55;83.02;99280.43;1814382;79;21698;-81
2023/03/06 00:44:04;;;;;;;20.43;10.93;;;;;;;-2.54;83.23;99277.27;1812910;79;21787;-88
2023/03/06 00:46:50;;;;;;;24.40;12.60;;;;;;;-2.51;83.25;99285.92;1814201;79;21722;-89
2023/03/06 00:49:50;;;;;;;26.12;11.90;;;;;;;-2.53;83.23;99285.69;1813773;79;21216;-79
2023/03/06 00:52:57;;;;;;;28.42;12.75;;;;;;;-2.52;83.15;99273.52;1814023;79;21204;-88
2023/03/06 00:56:03;;;;;;;17.80;10.32;;;;;;;-2.51;83.15;99273.02;1814412;79;21140;-88
2023/03/06 00:59:10;;;;;;;26.52;15.53;;;;;;;-2.50;83.12;99279.59;1812922;79;21756;-79
2023/03/06 01:02:15;;;;;;;18.35;10.93;;;;;;;-2.48;83.23;99273.64;1814149;79;21725;-78
2023/03/06 01:05:23;;;;;;;22.17;11.63;;;;;;;-2.46;83.15;99270.84;1814414;79;21156;-78
2023/03/06 01:08:30;;;;;;;23.92;11.53;;;;;;;-2.45;83.12;99275.21;1783519;79;21173;-88
2023/03/06 01:11:36;;;;;;;18.65;10.15;;;;;;;-2.43;82.84;99275.97;1813903;79;21228;-87
2023/03/06 01:14:41;;;;;;;21.48;10.78;;;;;;;-2.43;82.36;99282.17;1818015;79;21192;-79
2023/03/06 01:17:46;;;;;;;24.70;12.23;;;;;;;-2.47;81.97;99276.68;1816416;79;21569;-87
2023/03/06 01:20:51;;;;;;;21.62;12.10;;;;;;;-2.47;81.97;99278.52;1815874;79;21191;-89
2023/03/06 01:23:57;;;;;;;21.35;10.63;;;;;;;-2.46;81.93;99282.40;1814321;79;21168;-89
2023/03/06 01:27:03;;;;;;;22.55;11.20;;;;;;;-2.42;82.00;99279.85;1814512;79;21148;-80
2023/03/06 01:30:09;;;;;;;18.30;10.93;;;;;;;-2.41;81.90;99277.53;1814016;79;21260;-89
2023/03/06 01:33:16;;;;;;;20.68;11.05;;;;;;;-2.40;81.85;99283.28;1813877;79;21228;-89
2023/03/06 01:36:22;;;;;;;19.07;10.80;;;;;;;-2.38;81.90;99279.98;1814427;79;21153;-78
2023/03/06 01:39:30;;;;;;;27.48;11.68;;;;;;;-2.38;82.07;99277.80;1812893;79;21176;-88
2023/03/06 01:42:36;;;;;;;20.95;11.05;;;;;;;-2.40;82.15;99271.69;1813962;79;21227;-89
2023/03/06 01:45:48;;;;;;;18.27;11.35;;;;;;;-2.39;82.07;99276.95;1814155;79;21745;-88
2023/03/06 01:48:54;;;;;;;20.85;11.90;;;;;;;-2.38;81.86;99275.13;1813462;79;21193;-88
2023/03/06 01:52:04;;;;;;;25.23;11.03;;;;;;;-2.43;81.67;99270.13;1813115;79;21184;-79
2023/03/06 01:55:17;;;;;;;21.85;11.35;;;;;;;-2.42;81.80;99275.84;1812810;79;21165;-80
2023/03/06 01:58:18;;;;;;;20.25;11.28;;;;;;;-2.44;81.57;99279.63;1813687;79;21187;-79
2023/03/06 02:01:23;;;;;;;21.05;11.78;;;;;;;-2.49;81.58;99275.08;1814093;79;21188;-78
2023/03/06 02:04:29;;;;;;;17.80;11.43;;;;;;;-2.49;81.90;99273.28;1812867;79;21753;-79
2023/03/06 02:07:34;;;;;;;24.63;11.65;;;;;;;-2.44;82.05;99268.91;1814362;79;21176;-81
2023/03/06 02:10:40;;;;;;;22.85;11.30;;;;;;;-2.42;82.21;99262.94;1813908;79;21173;-88
2023/03/06 02:13:47;;;;;;;19.45;10.75;;;;;;;-2.39;82.08;99264.05;1813367;79;21240;-78
2023/03/06 02:16:54;;;;;;;21.00;11.38;;;;;;;-2.41;81.99;99271.33;1813743;79;21248;-87
2023/03/06 02:20:11;;;;;;;25.00;11.48;;;;;;;-2.41;82.05;99268.65;1812716;79;21745;-89
2023/03/06 02:23:26;;;;;;;17.02;10.32;;;;;;;-2.43;82.22;99269.27;1813987;79;21219;-79
2023/03/06 02:26:32;;;;;;;23.20;11.53;;;;;;;-2.49;81.57;99273.28;1814267;79;21169;-78
2023/03/06 02:29:39;;;;;;;18.35;10.13;;;;;;;-2.59;81.67;99272.27;1789239;79;21164;-80
2023/03/06 02:32:45;;;;;;;22.37;11.48;;;;;;;-2.49;81.44;99273.28;1810345;79;21192;-88
2023/03/06 02:36:01;;;;;;;24.57;10.43;;;;;;;-2.53;81.35;99270.47;1811921;79;21153;-79
2023/03/06 02:39:07;;;;;;;18.67;10.93;;;;;;;-2.54;81.33;99275.92;1810686;79;21183;-87
2023/03/06 02:42:13;;;;;;;17.73;10.25;;;;;;;-2.53;81.12;99277.66;1807668;79;21777;-88
2023/03/06 02:45:19;;;;;;;20.02;10.80;;;;;;;-2.64;80.77;99274.44;1812227;79;21678;-78
2023/03/06 02:48:25;;;;;;;17.00;11.12;;;;;;;-2.77;81.07;99279.06;1810770;79;21156;-78
2023/03/06 02:51:31;;;;;;;17.23;10.23;;;;;;;-2.74;80.99;99277.47;1811697;79;21179;-79
2023/03/06 02:54:37;;;;;;;24.00;12.28;;;;;;;-2.74;81.04;99280.14;1812309;79;21133;-80
2023/03/06 02:57:43;;;;;;;22.48;11.60;;;;;;;-2.72;80.92;99278.22;1812096;79;21180;-79
2023/03/06 03:00:49;;;;;;;18.75;11.10;;;;;;;-2.72;80.75;99283.08;1812004;79;21192;-79
2023/03/06 03:03:55;;;;;;;26.62;12.53;;;;;;;-2.74;80.74;99282.33;1810564;79;21720;-87
2023/03/06 03:07:02;;;;;;;19.42;10.23;;;;;;;-2.71;80.81;99287.95;1812143;79;21728;-79
2023/03/06 03:10:08;;;;;;;22.17;11.00;;;;;;;-2.76;80.48;99282.95;1812307;79;22078;-86
2023/03/06 03:13:13;;;;;;;25.02;11.12;;;;;;;-2.83;80.29;99281.69;1811365;79;21173;-79
2023/03/06 03:16:20;;;;;;;18.07;10.60;;;;;;;-2.95;80.55;99280.81;1812101;79;21169;-88
2023/03/06 03:19:26;;;;;;;22.70;11.73;;;;;;;-3.11;80.87;99275.74;1810757;79;21197;-85
2023/03/06 03:22:32;;;;;;;18.25;10.28;;;;;;;-3.17;81.54;99278.89;1812149;79;21189;-80
2023/03/06 03:25:37;;;;;;;20.82;11.10;;;;;;;-3.20;81.91;99280.93;1812214;79;21133;-86
2023/03/06 03:28:42;;;;;;;20.50;11.00;;;;;;;-3.23;81.91;99280.69;1812249;79;21195;-88
2023/03/06 03:31:47;;;;;;;20.23;10.32;;;;;;;-3.26;81.91;99281.39;1812252;79;21184;-88
2023/03/06 03:34:53;;;;;;;19.92;11.43;;;;;;;-3.30;82.13;99277.23;1809037;79;21714;-79
2023/03/06 03:38:00;;;;;;;18.52;10.28;;;;;;;-3.29;82.39;99274.92;1812065;79;21215;-88
2023/03/06 03:41:08;;;;;;;22.73;11.28;;;;;;;-3.28;82.50;99273.98;1810771;79;21156;-79
2023/03/06 03:44:13;;;;;;;21.42;11.00;;;;;;;-3.27;82.52;99275.69;1812171;79;21177;-79
2023/03/06 03:47:19;;;;;;;21.75;11.20;;;;;;;-3.25;82.62;99275.07;1811806;79;21208;-88
2023/03/06 03:50:26;;;;;;;19.07;10.40;;;;;;;-3.22;82.86;99276.19;1810779;79;21173;-87
2023/03/06 03:53:33;;;;;;;17.45;9.50;;;;;;;-3.17;83.25;99276.21;1810600;79;21177;-79
2023/03/06 03:56:40;;;;;;;23.98;9.78;;;;;;;-3.13;83.05;99275.02;1811979;79;21133;-88
2023/03/06 03:59:48;;;;;;;21.77;10.38;;;;;;;-3.18;83.02;99268.31;1812147;79;21165;-80
2023/03/06 04:02:57;;;;;;;17.15;10.05;;;;;;;-3.16;82.23;99271.72;1803815;79;21211;-82
2023/03/06 04:06:05;;;;;;;21.00;10.58;;;;;;;-3.16;81.91;99273.05;1811916;79;21196;-80
2023/03/06 04:09:12;;;;;;;36.93;11.93;;;;;;;-3.15;82.24;99273.44;1810813;79;21188;-88
2023/03/06 04:12:18;;;;;;;22.70;10.90;;;;;;;-3.21;82.47;99280.56;1811950;79;21188;-89
2023/03/06 04:15:25;;;;;;;23.62;11.38;;;;;;;-3.31;81.84;99277.72;1810451;79;21145;-80
2023/03/06 04:18:31;;;;;;;29.37;11.70;;;;;;;-3.40;81.60;99285.09;1810844;79;21513;-88
2023/03/06 04:21:37;;;;;;;17.48;9.50;;;;;;;-3.47;81.73;99278.50;1810550;79;21204;-80
2023/03/06 04:24:44;;;;;;;14.38;9.03;;;;;;;-3.51;82.13;99272.52;1811887;79;21145;-79
2023/03/06 04:27:49;;;;;;;18.27;10.03;;;;;;;-3.55;83.56;99276.37;1811597;79;21211;-89
2023/03/06 04:30:55;;;;;;;28.35;9.73;;;;;;;-3.54;84.50;99284.77;1810580;79;21156;-79
2023/03/06 04:34:02;;;;;;;20.77;9.95;;;;;;;-3.50;84.56;99284.06;1808991;79;21243;-80
2023/03/06 04:37:10;;;;;;;61.73;25.48;;;;;;;-3.47;83.80;99291.38;1810658;79;21236;-89
2023/03/06 04:40:29;;;;;;;57.60;22.58;;;;;;;-3.41;82.89;99294.09;1811944;79;21145;-87
2023/03/06 04:43:38;;;;;;;38.65;17.55;;;;;;;-3.40;82.88;99293.11;1812230;79;21773;-87
2023/03/06 04:46:44;;;;;;;32.75;14.60;;;;;;;-3.46;82.85;99286.40;1812131;79;21177;-79
2023/03/06 04:49:50;;;;;;;29.37;13.18;;;;;;;-3.42;83.00;99281.69;1811134;79;21181;-86
2023/03/06 04:52:56;;;;;;;32.23;11.57;;;;;;;-3.33;83.62;99286.84;1811478;79;21173;-88
2023/03/06 04:56:01;;;;;;;28.02;12.73;;;;;;;-3.24;84.06;99289.69;1812079;79;21141;-87
2023/03/06 04:59:09;;;;;;;29.02;13.62;;;;;;;-3.07;83.60;99297.78;1810624;79;21597;-78
2023/03/06 05:02:15;;;;;;;39.92;13.70;;;;;;;-3.00;82.88;99301.72;1811894;79;21212;-87
2023/03/06 05:05:23;;;;;;;25.75;13.05;;;;;;;-2.94;82.63;99297.23;1810479;79;21819;-79
2023/03/06 05:08:28;;;;;;;26.60;11.90;;;;;;;-2.85;82.47;99301.04;1811099;79;21775;-87
2023/03/06 05:11:35;;;;;;;24.12;11.50;;;;;;;-2.68;82.89;99303.76;1810538;79;21207;-87
2023/03/06 05:14:43;;;;;;;26.05;10.03;;;;;;;-2.46;83.14;99309.67;1810793;79;21776;-85
2023/03/06 05:17:51;;;;;;;24.27;10.82;;;;;;;-2.47;83.68;99300.78;1810567;79;21192;-79
2023/03/06 05:20:58;;;;;;;16.37;9.73;;;;;;;-2.38;83.97;99303.23;1810499;79;21686;-80
2023/03/06 05:24:04;;;;;;;27.52;11.83;;;;;;;-2.36;84.38;99294.09;1810598;79;21198;-87
2023/03/06 05:27:10;;;;;;;27.30;11.22;;;;;;;-2.28;84.79;99300.70;1811907;79;21709;-79
2023/03/06 05:30:20;;;;;;;22.00;10.25;;;;;;;-2.16;84.88;99310.47;1811940;79;21729;-79
2023/03/06 05:33:26;;;;;;;25.02;9.08;;;;;;;-2.09;84.89;99309.84;1811085;79;21224;-87
2023/03/06 05:36:33;;;;;;;21.80;11.12;;;;;;;-1.93;85.01;99319.35;1809438;79;21239;-88
2023/03/06 05:39:38;;;;;;;18.07;11.38;;;;;;;-1.76;84.91;99326.06;1811748;79;21192;-87
2023/03/06 05:42:44;;;;;;;24.63;10.78;;;;;;;-1.67;84.89;99332.89;1811880;79;21189;-87
2023/03/06 05:45:51;;;;;;;29.32;14.13;;;;;;;-1.60;85.26;99346.64;1811873;79;21160;-83
2023/03/06 05:48:57;;;;;;;23.42;11.95;;;;;;;-1.42;85.41;99353.71;1810916;79;21192;-85
2023/03/06 05:52:03;;;;;;;28.47;11.75;;;;;;;-1.20;85.57;99360.39;1812078;79;21157;-80
2023/03/06 05:55:10;;;;;;;28.90;14.33;;;;;;;-1.00;85.16;99365.47;1810760;79;21239;-78
2023/03/06 05:58:16;;;;;;;40.90;17.82;;;;;;;-0.86;85.00;99369.20;1810947;79;21239;-86
2023/03/06 06:01:27;;;;;;;53.48;22.73;;;;;;;-0.72;84.69;99377.95;1812202;79;21169;-83
2023/03/06 06:04:27;;;;;;;62.83;28.00;;;;;;;-0.57;84.23;99372.15;1811321;79;21164;-83
2023/03/06 06:07:21;;;;;;;62.38;25.85;;;;;;;-0.39;83.88;99383.69;1802115;79;21244;-85
2023/03/06 06:10:08;;;;;;;84.52;34.20;;;;;;;-0.15;84.06;99380.75;1787074;79;21200;-86
2023/03/06 06:13:01;;;;;;;66.22;28.65;;;;;;;0.11;84.13;99379.38;1805263;79;21220;-79
2023/03/06 06:15:48;;;;;;;68.20;28.42;;;;;;;0.38;83.80;99390.92;1796944;79;21184;-87
2023/03/06 06:18:41;;;;;;;69.92;28.65;;;;;;;0.64;82.90;99391.31;1804670;79;21790;-81
2023/03/06 06:21:46;;;;;;;66.00;28.03;;;;;;;0.80;82.32;99389.94;1812187;79;21152;-88
2023/03/06 06:24:46;;;;;;;49.40;19.77;;;;;;;1.04;81.44;99389.13;1798092;79;21157;-80
2023/03/06 06:27:52;;;;;;;37.70;18.12;;;;;;;1.26;80.52;99390.70;1789059;79;21161;-80
2023/03/06 06:30:58;;;;;;;28.77;15.98;;;;;;;1.34;79.46;99394.91;1796650;79;21156;-86
2023/03/06 06:34:05;;;;;;;36.73;17.02;;;;;;;1.43;79.50;99398.61;1800412;79;21618;-79
2023/03/06 06:37:11;;;;;;;30.00;15.15;;;;;;;1.57;78.67;99395.50;1786585;78;21794;-79
2023/03/06 06:40:20;;;;;;;35.58;15.13;;;;;;;1.61;78.61;99400.97;1792380;79;21136;-79
2023/03/06 06:43:26;;;;;;;30.48;13.18;;;;;;;1.73;78.10;99401.66;1789460;78;21181;-88
2023/03/06 06:46:33;;;;;;;22.60;12.13;;;;;;;1.94;77.16;99409.62;1793708;78;21208;-80
2023/03/06 06:49:45;;;;;;;19.50;11.28;;;;;;;2.00;76.38;99409.03;1775277;79;21145;-87
2023/03/06 06:52:51;;;;;;;18.48;10.38;;;;;;;2.04;76.52;99415.85;1792725;79;21165;-87
2023/03/06 06:55:51;;;;;;;25.60;12.58;;;;;;;2.22;75.27;99418.67;1794639;79;21205;-87
2023/03/06 06:59:01;;;;;;;23.92;11.85;;;;;;;2.27;74.92;99419.93;1785257;79;21169;-79
2023/03/06 07:02:09;;;;;;;23.60;11.85;;;;;;;2.41;74.75;99424.02;1786439;78;21181;-88
2023/03/06 07:05:14;;;;;;;27.75;12.90;;;;;;;2.56;73.90;99421.70;1781158;79;21145;-88
2023/03/06 07:08:21;;;;;;;20.25;11.22;;;;;;;2.55;73.73;99415.95;1787264;79;21757;-88
2023/03/06 07:11:26;;;;;;;21.50;11.93;;;;;;;2.64;73.60;99415.08;1788282;79;21745;-79
2023/03/06 07:14:34;;;;;;;17.87;9.68;;;;;;;2.80;73.29;99426.59;1785637;78;21146;-85
2023/03/06 07:17:32;;;;;;;18.95;9.70;;;;;;;2.90;72.70;99429.25;1724854;81;21253;-87
2023/03/06 07:20:26;;;;;;;16.07;10.18;;;;;;;2.99;72.43;99427.01;1779873;79;21165;-88
2023/03/06 07:23:13;;;;;;;17.35;9.18;;;;;;;3.10;72.46;99424.09;1777939;79;21212;-79
2023/03/06 07:26:05;;;;;;;19.32;8.50;;;;;;;3.23;71.43;99421.90;1775548;79;21754;-88
2023/03/06 07:28:55;;;;;;;18.45;9.13;;;;;;;3.34;71.06;99419.51;1788633;79;21195;-80
2023/03/06 07:31:48;;;;;;;17.42;9.55;;;;;;;3.48;70.37;99414.93;1734530;81;21202;-88
2023/03/06 07:34:34;;;;;;;24.35;8.43;;;;;;;3.62;70.01;99414.87;1786374;79;21137;-88
2023/03/06 07:37:27;;;;;;;30.00;14.23;;;;;;;3.78;69.38;99404.23;1778166;79;21169;-80
2023/03/06 07:40:33;;;;;;;20.12;10.75;;;;;;;3.86;67.68;99406.17;1787629;79;21722;-80
2023/03/06 07:43:39;;;;;;;23.00;9.58;;;;;;;3.91;66.67;99405.20;1777971;79;21153;-79
2023/03/06 07:46:45;;;;;;;28.20;7.65;;;;;;;3.95;66.14;99412.00;1780442;79;21196;-80
2023/03/06 07:49:52;;;;;;;12.23;6.70;;;;;;;3.98;65.47;99421.14;1787218;78;21192;-80
2023/03/06 07:52:59;;;;;;;14.78;7.12;;;;;;;4.06;64.64;99413.61;1750575;81;21174;-88
2023/03/06 07:56:10;;;;;;;12.47;6.65;;;;;;;4.15;63.62;99422.66;1785147;79;21749;-80
2023/03/06 07:59:18;;;;;;;13.43;5.25;;;;;;;4.27;63.29;99428.98;1781861;79;21200;-87
2023/03/06 08:02:25;;;;;;;12.98;6.47;;;;;;;4.35;61.91;99430.41;1779317;79;21145;-88
2023/03/06 08:05:31;;;;;;;12.78;6.60;;;;;;;4.35;61.24;99434.98;1782449;79;21165;-88
2023/03/06 08:08:43;;;;;;;10.25;5.97;;;;;;;4.39;61.65;99436.87;1782974;79;21173;-88
2023/03/06 08:11:46;;;;;;;9.43;5.90;;;;;;;4.47;60.54;99434.20;1785508;79;21145;-79
2023/03/06 08:14:53;;;;;;;15.28;7.10;;;;;;;4.46;59.91;99428.45;1783575;79;21184;-80
2023/03/06 08:18:01;;;;;;;10.93;6.03;;;;;;;4.50;60.52;99425.77;1787408;79;21581;-80
2023/03/06 08:21:17;;;;;;;15.93;8.00;;;;;;;4.59;59.79;99435.66;1781384;79;21694;-79
2023/03/06 08:24:22;;;;;;;16.90;6.45;;;;;;;4.59;59.48;99446.48;1785267;79;21212;-79
2023/03/06 08:27:29;;;;;;;11.90;6.87;;;;;;;4.60;57.72;99450.89;1782211;79;21625;-80
2023/03/06 08:30:36;;;;;;;16.75;8.03;;;;;;;4.58;58.10;99444.29;1728187;81;21162;-83
2023/03/06 08:33:43;;;;;;;18.67;7.95;;;;;;;4.65;56.80;99449.06;1789602;79;21157;-87
2023/03/06 08:36:49;;;;;;;17.50;8.83;;;;;;;4.65;56.34;99447.20;1784607;79;21161;-87
2023/03/06 08:39:55;;;;;;;21.45;7.97;;;;;;;4.63;56.15;99451.94;1787455;79;21157;-88
2023/03/06 08:43:01;;;;;;;14.10;8.03;;;;;;;4.67;56.93;99471.44;1794297;78;21181;-80
2023/03/06 08:46:06;;;;;;;13.00;6.47;;;;;;;4.78;56.51;99472.00;1792707;79;21177;-87
2023/03/06 08:49:12;;;;;;;11.08;6.35;;;;;;;4.84;56.04;99470.00;1794498;79;21733;-88
2023/03/06 08:52:12;;;;;;;17.63;8.30;;;;;;;4.95;56.08;99472.12;1791324;79;21382;-80
2023/03/06 08:55:18;;;;;;;16.77;7.60;;;;;;;5.07;54.57;99473.53;1791461;79;21153;-79
2023/03/06 08:58:24;;;;;;;14.87;7.45;;;;;;;5.17;54.03;99476.96;1792183;79;21227;-80
2023/03/06 09:01:37;;;;;;;16.80;7.97;;;;;;;5.30;53.77;99473.30;1794751;79;21149;-79
2023/03/06 09:04:44;;;;;;;18.75;7.45;;;;;;;5.39;53.27;99469.61;1788147;79;22125;-87
2023/03/06 09:07:50;;;;;;;16.17;7.22;;;;;;;5.48;51.76;99466.94;1794468;79;21735;-79
2023/03/06 09:10:57;;;;;;;15.58;7.17;;;;;;;5.50;51.40;99474.39;1780233;79;21161;-88
2023/03/06 09:14:03;;;;;;;13.15;7.37;;;;;;;5.49;50.97;99474.05;1785650;79;21164;-88
2023/03/06 09:17:11;;;;;;;19.42;8.05;;;;;;;5.51;50.44;99474.76;1797289;79;21168;-79
2023/03/06 09:20:16;;;;;;;16.23;7.58;;;;;;;5.53;50.93;99474.08;1784419;79;21820;-81
2023/03/06 09:23:22;;;;;;;15.65;7.22;;;;;;;5.56;50.76;99478.67;1780604;79;21220;-88
2023/03/06 09:26:27;;;;;;;13.25;6.35;;;;;;;5.67;50.88;99469.88;1731712;81;21184;-88
2023/03/06 09:29:34;;;;;;;15.78;6.87;;;;;;;5.83;50.57;99471.27;1760625;81;21310;-88
2023/03/06 09:32:41;;;;;;;13.35;7.35;;;;;;;6.03;50.21;99470.00;1725774;82;21181;-87
2023/03/06 09:35:59;;;;;;;16.52;6.25;;;;;;;6.20;49.78;99470.84;1732103;81;21158;-79
2023/03/06 09:39:06;;;;;;;12.15;5.60;;;;;;;6.22;48.28;99467.47;1756953;81;21244;-86
2023/03/06 09:42:14;;;;;;;18.82;6.53;;;;;;;6.26;48.64;99469.34;1764053;81;21568;-88
2023/03/06 09:45:20;;;;;;;11.30;5.03;;;;;;;6.29;48.66;99468.98;1734950;81;21766;-87
2023/03/06 09:48:28;;;;;;;8.58;5.15;;;;;;;6.31;46.82;99470.53;1758290;81;21263;-79
2023/03/06 09:51:38;;;;;;;9.95;5.72;;;;;;;6.39;46.58;99472.38;1759853;81;21205;-80
2023/03/06 09:54:49;;;;;;;10.15;5.65;;;;;;;6.45;46.12;99466.80;1727040;82;21570;-88
2023/03/06 09:58:03;;;;;;;11.93;5.85;;;;;;;6.45;45.69;99470.88;1731097;82;21221;-80
2023/03/06 10:01:28;;;;;;;9.65;5.28;;;;;;;6.35;45.74;99469.17;1737922;82;21237;-79
2023/03/06 10:04:50;;;;;;;10.65;4.60;;;;;;;6.39;45.48;99463.72;1738140;81;21196;-80
2023/03/06 10:08:12;;;;;;;10.30;4.42;;;;;;;6.46;45.75;99464.41;1731198;81;21217;-79
2023/03/06 10:11:18;;;;;;;10.60;4.55;;;;;;;6.55;44.80;99460.16;1757546;79;21180;-88
2023/03/06 10:14:46;;;;;;;11.38;5.08;;;;;;;6.53;43.20;99459.98;1758619;81;21232;-88
2023/03/06 10:17:52;;;;;;;10.55;4.83;;;;;;;6.46;44.10;99459.83;1753664;81;22035;-87
2023/03/06 10:21:09;;;;;;;11.38;4.75;;;;;;;6.49;44.17;99459.47;1721648;81;21156;-87
2023/03/06 10:24:44;;;;;;;10.60;4.75;;;;;;;6.46;44.14;99450.83;1710830;82;21213;-80
2023/03/06 10:27:59;;;;;;;9.78;5.75;;;;;;;6.35;43.12;99464.23;1729541;80;21189;-80
2023/03/06 10:31:29;;;;;;;9.00;4.67;;;;;;;6.23;44.17;99457.45;1736351;81;21168;-79
2023/03/06 10:34:43;;;;;;;10.40;4.20;;;;;;;6.22;44.56;99456.61;1727109;81;21189;-87
2023/03/06 10:37:49;;;;;;;10.60;4.90;;;;;;;6.21;44.07;99452.20;1731431;81;21208;-86
2023/03/06 10:41:21;;;;;;;7.12;4.53;;;;;;;6.11;44.21;99444.70;1766953;81;21166;-87
2023/03/06 10:44:27;;;;;;;11.57;5.05;;;;;;;6.09;45.42;99452.18;1750197;81;21759;-80
2023/03/06 10:47:39;;;;;;;8.80;4.35;;;;;;;6.09;45.74;99446.75;1795387;79;21209;-86
2023/03/06 10:50:45;;;;;;;9.65;4.30;;;;;;;6.21;46.62;99444.05;1786251;79;21746;-86
2023/03/06 10:54:01;;;;;;;9.50;3.77;;;;;;;6.29;46.23;99435.03;1791074;79;21216;-87
2023/03/06 10:57:28;;;;;;;8.80;4.22;;;;;;;6.37;46.39;99430.97;1788486;79;21207;-79
2023/03/06 11:00:37;;;;;;;10.63;4.85;;;;;;;6.46;46.59;99439.45;1749050;81;21194;-87
2023/03/06 11:03:43;;;;;;;9.88;3.98;;;;;;;6.51;46.08;99437.06;1788773;78;21199;-87
2023/03/06 11:06:48;;;;;;;10.38;4.37;;;;;;;6.59;46.56;99434.86;1790642;78;21149;-79
2023/03/06 11:10:10;;;;;;;9.68;4.40;;;;;;;6.67;46.00;99434.83;1785001;79;21412;-87
2023/03/06 11:13:30;;;;;;;8.20;4.50;;;;;;;6.69;45.85;99441.47;1744940;81;21193;-80
2023/03/06 11:16:36;;;;;;;8.13;3.95;;;;;;;6.72;45.80;99450.61;1720197;81;21183;-87
2023/03/06 11:19:43;;;;;;;9.25;4.03;;;;;;;6.73;45.40;99446.39;1778610;79;21153;-80
2023/03/06 11:22:48;;;;;;;9.88;4.42;;;;;;;6.68;45.46;99443.34;1779099;79;21231;-80
2023/03/06 11:26:04;;;;;;;7.80;3.30;;;;;;;6.64;45.13;99448.78;1784138;79;21197;-79
2023/03/06 11:29:26;;;;;;;8.23;3.98;;;;;;;6.63;45.34;99444.34;1770359;79;21185;-87
2023/03/06 11:32:41;;;;;;;8.65;3.80;;;;;;;6.52;45.68;99442.83;1789815;79;21192;-88
2023/03/06 11:35:54;;;;;;;5.75;3.45;;;;;;;6.40;45.94;99447.78;1791385;79;21545;-83
2023/03/06 11:39:00;;;;;;;6.80;3.30;;;;;;;6.40;46.35;99446.94;1795076;79;21255;-79
2023/03/06 11:42:36;;;;;;;7.90;3.83;;;;;;;6.38;46.98;99444.37;1732963;81;21251;-86
2023/03/06 11:45:55;;;;;;;5.60;3.70;;;;;;;6.35;46.30;99437.94;1798748;79;21983;-80
2023/03/06 11:49:27;;;;;;;6.42;3.52;;;;;;;6.31;46.29;99431.66;1774447;79;21256;-88
2023/03/06 11:52:56;;;;;;;7.05;4.05;;;;;;;6.27;46.68;99433.86;1740892;81;22161;-88
2023/03/06 11:56:25;;;;;;;8.15;4.37;;;;;;;6.28;47.21;99427.41;1784735;79;21173;-79
2023/03/06 11:59:43;;;;;;;9.35;4.22;;;;;;;6.33;47.38;99430.45;1786661;79;21144;-87
2023/03/06 12:03:30;;;;;;;8.30;4.10;;;;;;;6.38;47.53;99425.36;1788569;79;21190;-88
2023/03/06 12:06:56;;;;;;;9.18;4.70;;;;;;;6.49;47.63;99430.09;1778876;79;21196;-79
2023/03/06 12:10:26;;;;;;;10.78;3.95;;;;;;;6.55;47.39;99434.86;1786084;79;21192;-80
2023/03/06 12:13:49;;;;;;;8.55;4.10;;;;;;;6.61;47.15;99438.24;1700396;82;21201;-88
2023/03/06 12:17:12;;;;;;;9.48;4.70;;;;;;;6.59;46.79;99436.22;1783049;79;21717;-88
2023/03/06 12:21:10;;;;;;;8.38;4.30;;;;;;;6.55;46.70;99434.35;1744564;81;21213;-78
2023/03/06 12:24:37;;;;;;;7.40;4.15;;;;;;;6.50;46.68;99428.59;1789898;79;21149;-79
2023/03/06 12:28:23;;;;;;;8.75;4.50;;;;;;;6.48;47.27;99427.89;1753827;79;21221;-79
2023/03/06 12:31:52;;;;;;;9.48;3.75;;;;;;;6.47;46.95;99437.58;1749277;79;21153;-89
2023/03/06 12:35:07;;;;;;;9.43;4.12;;;;;;;6.45;47.05;99432.33;1781140;79;21169;-80
2023/03/06 12:38:23;;;;;;;8.90;4.58;;;;;;;6.35;47.03;99445.21;1788410;79;21726;-80
2023/03/06 12:42:12;;;;;;;9.73;4.87;;;;;;;6.20;47.60;99441.48;1777117;80;21142;-80
2023/03/06 12:45:42;;;;;;;9.30;4.97;;;;;;;6.12;47.64;99444.55;1761430;81;21536;-89
2023/03/06 12:48:41;;;;;;;;;;;;;;;6.01;47.85;99447.58;1742283;82;21190;-79
2023/03/06 12:51:49;;;;;;;12.10;5.03;;;;;;;5.96;49.00;99440.45;1734779;81;20210;-79
2023/03/06 12:54:59;;;;;;;11.22;4.95;;;;;;;5.96;48.73;99447.75;1794123;79;21188;-79
2023/03/06 12:58:09;;;;;;;9.10;4.53;;;;;;;6.02;49.52;99448.42;1786737;79;21269;-79
2023/03/06 13:01:40;;;;;;;10.88;5.15;;;;;;;6.10;48.86;99456.59;1785127;79;21235;-89
2023/03/06 13:05:04;;;;;;;11.15;5.03;;;;;;;6.11;48.68;99460.48;1731874;82;21158;-79
2023/03/06 13:08:49;;;;;;;11.60;4.97;;;;;;;6.15;49.21;99461.00;1786546;79;21780;-79
2023/03/06 13:12:05;;;;;;;7.35;4.47;;;;;;;6.17;49.35;99464.41;1783395;79;21153;-88
2023/03/06 13:15:46;;;;;;;6.85;4.10;;;;;;;6.18;48.56;99460.67;1782496;79;21237;-89
2023/03/06 13:19:06;;;;;;;4.22;2.77;;;;;;;6.14;48.41;99469.66;1784903;79;21216;-89
2023/03/06 13:22:33;;;;;;;7.08;4.33;;;;;;;6.13;48.68;99475.27;1793528;79;21176;-88
2023/03/06 13:25:41;;;;;;;10.35;3.90;;;;;;;6.12;48.54;99469.50;1790014;79;21168;-84
2023/03/06 13:28:56;;;;;;;12.98;4.62;;;;;;;6.09;48.53;99470.67;1775772;79;21817;-89
2023/03/06 13:32:12;;;;;;;7.45;3.70;;;;;;;6.06;48.20;99472.36;1783423;79;21610;-79
2023/03/06 13:35:38;;;;;;;12.55;4.33;;;;;;;6.00;47.85;99477.62;1785660;79;21157;-88
2023/03/06 13:38:51;;;;;;;11.60;4.05;;;;;;;5.96;48.35;99478.97;1717369;81;21142;-79
2023/03/06 13:42:06;;;;;;;10.05;4.72;;;;;;;5.97;48.67;99482.02;1787223;79;21169;-79
2023/03/06 13:45:31;;;;;;;12.15;4.70;;;;;;;5.95;48.67;99483.55;1790371;78;21180;-88
2023/03/06 13:48:39;;;;;;;9.85;5.20;;;;;;;5.90;47.93;99481.30;1776211;79;21682;-89
2023/03/06 13:52:10;;;;;;;8.23;5.28;;;;;;;5.85;47.76;99486.38;1739099;81;21688;-79
2023/03/06 13:55:32;;;;;;;11.97;4.92;;;;;;;5.80;48.07;99483.31;1715104;82;21704;-79
2023/03/06 13:59:06;;;;;;;12.88;5.00;;;;;;;5.71;48.51;99482.95;1746227;81;21583;-80
2023/03/06 14:02:58;;;;;;;14.87;4.83;;;;;;;5.66;48.86;99494.81;1748478;81;21213;-89
2023/03/06 14:06:49;;;;;;;6.85;4.22;;;;;;;5.59;48.98;99497.82;1770018;81;21117;-88
2023/03/06 14:10:02;;;;;;;10.25;5.35;;;;;;;5.48;49.62;99503.05;1770880;81;21180;-87
2023/03/06 14:13:06;;;;;;;15.05;5.72;;;;;;;5.43;49.73;99504.55;1771374;81;21173;-89
2023/03/06 14:16:02;;;;;;;13.13;4.65;;;;;;;5.35;49.71;99514.34;1771225;81;21153;-88
2023/03/06 14:19:10;;;;;;;11.33;5.80;;;;;;;5.29;50.35;99513.64;1769251;81;21208;-88
2023/03/06 14:22:23;;;;;;;12.60;5.20;;;;;;;5.23;50.09;99517.52;1771115;81;21197;-89
2023/03/06 14:25:33;;;;;;;10.20;4.72;;;;;;;5.16;50.25;99509.16;1771443;81;21138;-88
2023/03/06 14:28:41;;;;;;;15.38;7.17;;;;;;;5.10;50.16;99522.86;1748827;81;21168;-89
2023/03/06 14:31:42;;;;;;;13.77;6.33;;;;;;;5.07;50.92;99518.25;1770350;81;21213;-79
2023/03/06 14:34:42;;;;;;;12.90;6.08;;;;;;;5.02;50.91;99530.08;1771503;81;21706;-79
2023/03/06 14:37:51;;;;;;;16.67;6.35;;;;;;;4.97;50.98;99527.85;1771498;81;21176;-89
2023/03/06 14:40:57;;;;;;;13.22;6.03;;;;;;;4.93;51.41;99535.10;1771289;81;21157;-79
2023/03/06 14:44:25;;;;;;;13.32;7.30;;;;;;;4.88;52.29;99548.62;1771295;81;21196;-80